Time;durP1;ratioP1;P1;durP2;ratioP2;P2;SDS_P1;SDS_P2;PMS_P1;PMS_P2;Temp;Humidity;BMP_temperature;BMP_pressure;BME280_temperature;BME280_humidity;BME280_pressure;Samples;Min_cycle;Max_cycle;Signal;HPM_P1;HPM_P2
2022/12/10 00:00:47;;;;;;;77.08;39.03;;;;;;;1.35;96.89;99775.84;1719856;81;25849;-83
2022/12/10 00:03:15;;;;;;;72.40;36.40;;;;;;;1.35;96.98;99779.32;1725106;82;26082;-83
2022/12/10 00:05:41;;;;;;;78.15;37.67;;;;;;;1.35;96.95;99766.61;1719810;82;25329;-83
2022/12/10 00:08:08;;;;;;;72.95;39.45;;;;;;;1.32;96.89;99766.92;1725613;81;25800;-83
2022/12/10 00:10:34;;;;;;;73.57;38.23;;;;;;;1.30;96.91;99766.25;1721629;81;26606;-84
2022/12/10 00:13:00;;;;;;;77.95;39.33;;;;;;;1.30;97.06;99762.29;1736919;82;25991;-83
2022/12/10 00:15:26;;;;;;;73.67;36.88;;;;;;;1.29;96.98;99764.57;1730433;81;27448;-83
2022/12/10 00:17:53;;;;;;;79.05;37.05;;;;;;;1.26;97.08;99761.73;1728282;81;25778;-83
2022/12/10 00:20:19;;;;;;;75.47;34.63;;;;;;;1.27;97.08;99759.94;1730861;82;25863;-83
2022/12/10 00:22:45;;;;;;;73.07;38.15;;;;;;;1.25;97.11;99758.77;1725022;82;25912;-84
2022/12/10 00:25:11;;;;;;;78.70;37.65;;;;;;;1.22;97.09;99757.73;1730485;81;25896;-83
2022/12/10 00:27:38;;;;;;;78.72;38.53;;;;;;;1.22;97.13;99756.93;1729475;81;27603;-83
2022/12/10 00:30:05;;;;;;;83.95;40.03;;;;;;;1.21;97.15;99756.58;1719655;81;25840;-83
2022/12/10 00:32:31;;;;;;;74.92;36.53;;;;;;;1.17;97.13;99746.81;1728660;82;25971;-83
2022/12/10 00:34:58;;;;;;;78.30;39.23;;;;;;;1.18;97.20;99755.54;1727375;81;25832;-83
2022/12/10 00:37:24;;;;;;;79.90;39.23;;;;;;;1.18;97.25;99755.05;1718042;82;25867;-84
2022/12/10 00:39:50;;;;;;;74.55;37.98;;;;;;;1.19;97.23;99750.62;1729028;81;27465;-83
2022/12/10 00:42:17;;;;;;;83.55;41.77;;;;;;;1.18;97.20;99744.98;1720474;81;25754;-84
2022/12/10 00:44:43;;;;;;;83.12;39.95;;;;;;;1.15;97.19;99750.09;1736015;81;25823;-83
2022/12/10 00:47:09;;;;;;;78.60;38.95;;;;;;;1.15;97.31;99754.53;1718914;81;25876;-83
2022/12/10 00:49:35;;;;;;;79.82;38.58;;;;;;;1.14;97.35;99756.33;1734053;82;25981;-83
2022/12/10 00:52:02;;;;;;;82.20;40.35;;;;;;;1.16;97.47;99768.05;1725335;81;27690;-83
2022/12/10 00:54:30;;;;;;;72.72;37.05;;;;;;;1.17;97.44;99769.23;1731240;82;25933;-83
2022/12/10 00:56:56;;;;;;;87.05;41.70;;;;;;;1.16;97.44;99770.20;1725140;82;25773;-83
2022/12/10 00:59:23;;;;;;;74.37;37.65;;;;;;;1.16;97.51;99769.36;1729051;81;25807;-83
2022/12/10 01:01:49;;;;;;;82.67;40.15;;;;;;;1.20;97.56;99765.45;1717577;82;25751;-83
2022/12/10 01:04:17;;;;;;;84.42;41.20;;;;;;;1.21;97.56;99771.92;1738256;81;27458;-83
2022/12/10 01:06:51;;;;;;;79.15;38.92;;;;;;;1.22;97.49;99772.76;1724749;81;25879;-83
2022/12/10 01:09:22;;;;;;;78.75;41.63;;;;;;;1.21;97.46;99769.28;1717423;82;25929;-84
2022/12/10 01:11:50;;;;;;;80.30;37.50;;;;;;;1.19;97.44;99766.44;1718852;82;26102;-83
2022/12/10 01:14:27;;;;;;;81.65;39.88;;;;;;;1.18;97.51;99760.33;1711764;82;25302;-82
2022/12/10 01:16:57;;;;;;;77.45;38.90;;;;;;;1.18;97.49;99758.17;1715336;82;27473;-83
2022/12/10 01:19:23;;;;;;;78.33;39.27;;;;;;;1.16;97.55;99755.70;1732276;81;25910;-83
2022/12/10 01:21:52;;;;;;;84.52;40.63;;;;;;;1.17;97.61;99758.69;1728529;81;25778;-83
2022/12/10 01:24:26;;;;;;;77.45;37.53;;;;;;;1.17;97.67;99756.05;1718784;81;25843;-83
2022/12/10 01:26:54;;;;;;;77.58;37.67;;;;;;;1.19;97.69;99756.73;1723384;81;25927;-83
2022/12/10 01:29:21;;;;;;;86.57;41.90;;;;;;;1.20;97.69;99754.90;1724841;81;27529;-84
2022/12/10 01:31:53;;;;;;;81.05;41.42;;;;;;;1.20;97.64;99749.63;1725887;82;25930;-83
2022/12/10 01:34:20;;;;;;;88.75;42.58;;;;;;;1.21;97.71;99749.50;1724824;82;25368;-83
2022/12/10 01:36:51;;;;;;;82.75;38.92;;;;;;;1.22;97.74;99754.30;1723042;82;25827;-83
2022/12/10 01:39:20;;;;;;;89.50;43.45;;;;;;;1.24;97.70;99745.74;1711553;82;25823;-83
2022/12/10 01:41:55;;;;;;;86.37;42.43;;;;;;;1.23;97.68;99738.79;1716190;82;27472;-83
2022/12/10 01:44:26;;;;;;;80.12;41.95;;;;;;;1.23;97.69;99736.16;1717718;81;25616;-83
2022/12/10 01:46:56;;;;;;;81.53;38.25;;;;;;;1.22;97.68;99731.36;1720311;82;25828;-83
2022/12/10 01:49:26;;;;;;;;;;;;;;;1.22;97.72;99736.63;1704221;82;25918;-83
2022/12/10 01:51:56;;;;;;;82.55;38.53;;;;;;;1.21;97.74;99730.20;1734345;81;25839;-83
2022/12/10 01:54:32;;;;;;;79.35;41.15;;;;;;;1.20;97.82;99731.16;1719119;82;27495;-83
2022/12/10 01:57:09;;;;;;;78.35;38.67;;;;;;;1.20;97.84;99733.80;1725840;82;26099;-83
2022/12/10 01:59:37;;;;;;;79.35;40.30;;;;;;;1.21;97.94;99732.84;1716775;81;25956;-83
2022/12/10 02:02:33;;;;;;;83.47;41.10;;;;;;;1.21;97.94;99731.52;1703203;81;25767;-83
2022/12/10 02:05:11;;;;;;;91.47;43.40;;;;;;;1.21;97.95;99738.11;1706305;82;25986;-83
2022/12/10 02:08:21;;;;;;;78.55;36.83;;;;;;;1.21;98.01;99739.42;1730514;82;27485;-83
2022/12/10 02:11:11;;;;;;;89.92;42.05;;;;;;;1.21;98.01;99738.11;1728304;81;26162;-83
2022/12/10 02:13:43;;;;;;;94.43;45.27;;;;;;;1.21;98.02;99732.84;1725624;82;26466;-83
2022/12/10 02:16:23;;;;;;;87.78;42.27;;;;;;;1.20;98.08;99737.27;1698521;83;25957;-83
2022/12/10 02:19:04;;;;;;;90.60;40.85;;;;;;;1.21;98.10;99734.16;1727958;82;25341;-83
2022/12/10 02:21:36;;;;;;;84.70;38.50;;;;;;;1.21;98.12;99738.11;1705854;83;27465;-84
2022/12/10 02:24:08;;;;;;;91.32;44.00;;;;;;;1.21;98.11;99730.20;1729507;82;25978;-83
2022/12/10 02:26:59;;;;;;;83.80;41.98;;;;;;;1.21;98.10;99730.20;1713245;82;26460;-83
2022/12/10 02:29:27;;;;;;;80.17;36.90;;;;;;;1.19;98.09;99734.31;1716105;82;25939;-83
2022/12/10 02:32:11;;;;;;;90.10;41.37;;;;;;;1.20;98.16;99737.75;1711727;83;25919;-83
2022/12/10 02:34:45;;;;;;;86.40;42.98;;;;;;;1.18;98.11;99741.87;1711411;83;28716;-83
2022/12/10 02:37:22;;;;;;;89.17;42.15;;;;;;;1.17;98.19;99736.27;1674307;84;25350;-83
2022/12/10 02:39:55;;;;;;;90.28;40.90;;;;;;;1.17;98.18;99738.07;1699639;82;26203;-84
2022/12/10 02:42:25;;;;;;;90.92;41.50;;;;;;;1.17;98.26;99745.98;1728755;81;25825;-84
2022/12/10 02:44:56;;;;;;;91.25;42.27;;;;;;;1.17;98.29;99738.91;1725367;81;25777;-83
2022/12/10 02:47:24;;;;;;;89.58;42.55;;;;;;;1.18;98.29;99746.30;1723108;81;27452;-84
2022/12/10 02:49:56;;;;;;;87.02;42.05;;;;;;;1.18;98.23;99744.98;1714155;82;25285;-84
2022/12/10 02:52:24;;;;;;;92.70;42.63;;;;;;;1.16;98.25;99743.83;1732217;81;25833;-84
2022/12/10 02:54:52;;;;;;;83.20;37.80;;;;;;;1.17;98.28;99748.14;1685064;83;25889;-84
2022/12/10 02:57:40;;;;;;;86.50;42.20;;;;;;;1.16;98.28;99749.58;1738392;81;25759;-84
2022/12/10 03:00:18;;;;;;;79.27;37.65;;;;;;;1.16;98.30;99745.62;1711784;82;27661;-82
2022/12/10 03:03:10;;;;;;;87.72;41.88;;;;;;;1.17;98.36;99745.98;1701994;82;25732;-82
2022/12/10 03:06:04;;;;;;;103.53;44.30;;;;;;;1.17;98.32;99737.59;1707958;83;25794;-82
2022/12/10 03:08:54;;;;;;;88.10;41.08;;;;;;;1.13;98.29;99745.45;1733513;81;25814;-82
2022/12/10 03:11:24;;;;;;;86.97;40.10;;;;;;;1.12;98.41;99741.14;1704919;82;25522;-83
2022/12/10 03:14:08;;;;;;;90.28;39.90;;;;;;;1.12;98.46;99741.14;1726170;81;27511;-83
2022/12/10 03:16:39;;;;;;;85.28;38.73;;;;;;;1.13;98.46;99741.50;1714225;82;25766;-83
2022/12/10 03:19:14;;;;;;;84.70;38.15;;;;;;;1.10;98.44;99736.98;1712994;82;25751;-83
2022/12/10 03:21:43;;;;;;;89.07;41.08;;;;;;;1.08;98.51;99734.51;1718363;82;25813;-84
2022/12/10 03:24:11;;;;;;;87.50;40.78;;;;;;;1.10;98.58;99733.03;1727913;82;25742;-83
2022/12/10 03:26:39;;;;;;;87.33;39.03;;;;;;;1.08;98.53;99729.72;1724663;82;28259;-83
2022/12/10 03:29:14;;;;;;;87.55;40.78;;;;;;;1.08;98.60;99727.08;1714655;82;26105;-83
2022/12/10 03:31:42;;;;;;;81.80;37.53;;;;;;;1.09;98.64;99730.08;1692495;82;26630;-83
2022/12/10 03:34:10;;;;;;;89.83;40.90;;;;;;;1.10;98.68;99734.35;1723023;81;25869;-82
2022/12/10 03:36:39;;;;;;;88.90;40.40;;;;;;;1.10;98.62;99734.35;1717929;81;26740;-82
2022/12/10 03:39:06;;;;;;;86.78;39.73;;;;;;;1.10;98.70;99732.55;1727963;81;27456;-83
2022/12/10 03:41:32;;;;;;;84.30;38.55;;;;;;;1.10;98.67;99728.59;1729919;81;26366;-83
2022/12/10 03:44:00;;;;;;;88.42;40.23;;;;;;;1.12;98.64;99735.03;1726971;81;25793;-82
2022/12/10 03:46:31;;;;;;;86.22;38.25;;;;;;;1.11;98.63;99741.30;1732783;81;25848;-82
2022/12/10 03:48:59;;;;;;;;;;;;;;;1.11;98.62;99742.63;1691923;83;25884;-82
2022/12/10 03:51:26;;;;;;;89.83;38.00;;;;;;;1.12;98.65;99741.63;1713589;82;28003;-82
2022/12/10 03:53:52;;;;;;;85.22;38.50;;;;;;;1.11;98.76;99742.11;1719642;82;25898;-83
2022/12/10 03:56:20;;;;;;;88.07;39.92;;;;;;;1.13;98.76;99742.82;1714463;81;26347;-82
2022/12/10 03:58:48;;;;;;;91.42;38.78;;;;;;;1.13;98.67;99747.26;1711492;82;25844;-82
2022/12/10 04:01:15;;;;;;;74.03;35.13;;;;;;;1.11;98.65;99740.79;1733493;81;25789;-83
2022/12/10 04:03:42;;;;;;;87.88;40.12;;;;;;;1.11;98.63;99745.26;1701625;83;27490;-82
2022/12/10 04:06:14;;;;;;;79.25;37.33;;;;;;;1.11;98.69;99749.22;1723513;82;26217;-82
2022/12/10 04:08:40;;;;;;;83.75;38.50;;;;;;;1.11;98.72;99743.94;1700053;82;25842;-82
2022/12/10 04:11:10;;;;;;;93.25;41.25;;;;;;;1.10;98.66;99743.59;1711397;82;25864;-83
2022/12/10 04:16:27;;;;;;;85.70;38.83;;;;;;;1.09;98.77;99744.06;1723645;82;27506;-82
2022/12/10 04:19:00;;;;;;;87.62;38.88;;;;;;;1.09;98.78;99748.53;1734429;82;26052;-82
2022/12/10 04:27:11;;;;;;;82.05;38.67;;;;;;;1.05;98.85;99736.63;1736406;81;25849;-83
2022/12/10 04:29:38;;;;;;;78.37;37.98;;;;;;;1.04;98.93;99728.36;1742554;81;27463;-83
2022/12/10 04:32:05;;;;;;;82.37;38.00;;;;;;;1.04;99.04;99726.55;1724130;81;25915;-83
2022/12/10 04:34:32;;;;;;;82.10;37.08;;;;;;;1.04;99.05;99731.83;1721860;82;25796;-83
2022/12/10 04:36:59;;;;;;;79.97;38.50;;;;;;;1.03;99.07;99734.11;1716553;82;25996;-82
2022/12/10 04:39:26;;;;;;;89.72;39.05;;;;;;;1.03;99.07;99735.43;1685684;84;25778;-83
2022/12/10 04:41:52;;;;;;;84.13;38.48;;;;;;;1.03;99.10;99736.75;1711756;82;27422;-83
2022/12/10 04:44:19;;;;;;;86.72;38.90;;;;;;;1.04;99.14;99737.59;1695599;82;25818;-83
2022/12/10 04:46:47;;;;;;;87.33;40.05;;;;;;;1.05;99.17;99745.34;1707482;83;25898;-83
2022/12/10 04:49:14;;;;;;;88.82;40.23;;;;;;;1.04;99.11;99749.45;1734777;81;25964;-83
2022/12/10 04:51:41;;;;;;;80.07;38.58;;;;;;;1.06;99.19;99744.86;1717713;81;26077;-83
2022/12/10 04:54:08;;;;;;;88.45;39.42;;;;;;;1.06;99.16;99754.09;1717566;82;27424;-83
2022/12/10 04:56:35;;;;;;;85.60;38.48;;;;;;;1.05;99.13;99752.45;1704625;81;26075;-83
2022/12/10 04:59:03;;;;;;;89.15;40.12;;;;;;;1.05;99.22;99741.90;1719539;81;25852;-85
2022/12/10 05:01:30;;;;;;;84.97;37.33;;;;;;;1.05;99.21;99751.13;1725631;82;26991;-83
2022/12/10 05:04:02;;;;;;;89.55;42.40;;;;;;;1.03;99.26;99757.84;1721342;81;25816;-83
2022/12/10 05:06:29;;;;;;;86.70;38.35;;;;;;;1.04;99.30;99759.52;1727519;81;27926;-83
2022/12/10 05:08:55;;;;;;;88.33;38.15;;;;;;;1.06;99.34;99771.23;1732542;81;25907;-83
2022/12/10 05:11:25;;;;;;;87.72;39.83;;;;;;;1.08;99.41;99761.36;1704940;83;25809;-83
2022/12/10 05:13:53;;;;;;;83.10;36.93;;;;;;;1.10;99.36;99756.29;1736277;82;26064;-83
2022/12/10 05:16:23;;;;;;;82.27;39.18;;;;;;;1.12;99.33;99759.61;1720566;82;25288;-83
2022/12/10 05:18:50;;;;;;;91.10;40.92;;;;;;;1.12;99.26;99763.56;1713964;81;27450;-83
2022/12/10 05:21:19;;;;;;;87.37;39.98;;;;;;;1.13;99.29;99777.59;1715353;82;26493;-83
2022/12/10 05:23:49;;;;;;;75.67;36.40;;;;;;;1.17;99.34;99774.99;1726210;82;25308;-83
2022/12/10 05:26:22;;;;;;;88.50;40.92;;;;;;;1.17;99.25;99780.27;1726054;81;26371;-83
2022/12/10 05:28:53;;;;;;;89.70;39.58;;;;;;;1.17;99.21;99787.70;1726683;82;25859;-83
2022/12/10 05:31:23;;;;;;;88.15;40.90;;;;;;;1.16;99.17;99779.44;1720537;82;27566;-83
2022/12/10 05:33:54;;;;;;;87.00;41.95;;;;;;;1.16;99.20;99787.83;1719137;81;26588;-82
2022/12/10 05:36:25;;;;;;;82.65;38.40;;;;;;;1.15;99.26;99779.11;1730560;81;25822;-82
2022/12/10 05:38:54;;;;;;;93.10;39.10;;;;;;;1.15;99.26;99786.18;1726166;82;26577;-82
2022/12/10 05:41:23;;;;;;;97.42;42.25;;;;;;;1.14;99.23;99784.02;1719638;81;25712;-83
2022/12/10 05:43:56;;;;;;;88.87;40.35;;;;;;;1.12;99.34;99785.14;1724274;82;27464;-83
2022/12/10 05:46:28;;;;;;;97.08;42.25;;;;;;;1.12;99.34;99785.14;1729861;82;25298;-83
2022/12/10 05:48:55;;;;;;;95.38;40.52;;;;;;;1.11;99.41;99781.67;1738812;82;25756;-82
2022/12/10 05:51:26;;;;;;;90.83;42.27;;;;;;;1.13;99.42;99780.22;1721808;82;25794;-83
2022/12/10 05:53:54;;;;;;;86.10;38.17;;;;;;;1.12;99.41;99774.11;1727568;82;25864;-82
2022/12/10 05:56:23;;;;;;;90.42;38.83;;;;;;;1.12;99.45;99772.80;1694497;81;27471;-83
2022/12/10 05:58:53;;;;;;;85.17;37.65;;;;;;;1.11;99.43;99777.71;1723120;81;26314;-83
2022/12/10 06:01:23;;;;;;;92.57;41.65;;;;;;;1.09;99.43;99783.62;1715564;81;25763;-82
2022/12/10 06:03:52;;;;;;;91.42;38.80;;;;;;;1.05;99.43;99779.63;1714012;82;25822;-82
2022/12/10 06:06:23;;;;;;;92.97;40.28;;;;;;;1.02;99.53;99790.48;1719672;82;25304;-82
2022/12/10 06:08:50;;;;;;;90.67;37.70;;;;;;;1.02;99.56;99788.33;1723123;82;27447;-82
2022/12/10 06:11:16;;;;;;;94.62;40.38;;;;;;;1.05;99.72;99781.45;1702316;83;25857;-82
2022/12/10 06:13:43;;;;;;;94.32;39.23;;;;;;;1.06;99.64;99780.45;1709621;83;26550;-82
2022/12/10 06:16:12;;;;;;;93.47;38.95;;;;;;;1.05;99.60;99784.09;1728069;82;26509;-82
2022/12/10 06:18:40;;;;;;;85.53;38.20;;;;;;;1.02;99.61;99791.80;1727804;82;25781;-82
2022/12/10 06:21:09;;;;;;;90.17;40.33;;;;;;;1.01;99.69;99796.72;1729024;81;27451;-82
2022/12/10 06:23:38;;;;;;;84.45;37.70;;;;;;;1.01;99.73;99803.31;1727274;82;25840;-82
2022/12/10 06:26:15;;;;;;;84.50;39.00;;;;;;;1.03;99.79;99800.03;1699230;83;25302;-82
2022/12/10 06:28:44;;;;;;;82.40;37.60;;;;;;;1.03;99.75;99803.98;1727915;82;25811;-81
2022/12/10 06:31:11;;;;;;;87.45;38.63;;;;;;;1.03;99.79;99804.47;1703657;81;25954;-82
2022/12/10 06:33:40;;;;;;;88.37;39.78;;;;;;;1.02;99.73;99807.62;1703645;82;27465;-82
2022/12/10 06:36:09;;;;;;;77.78;36.08;;;;;;;1.02;99.69;99812.05;1727579;82;26460;-82
2022/12/10 06:38:36;;;;;;;77.47;33.70;;;;;;;1.02;99.69;99816.02;1724541;82;26493;-82
2022/12/10 06:41:08;;;;;;;80.05;33.53;;;;;;;1.01;99.64;99819.13;1719998;82;25899;-82
2022/12/10 06:43:35;;;;;;;75.65;32.40;;;;;;;1.00;99.52;99822.75;1728746;82;25319;-82
2022/12/10 06:46:08;;;;;;;65.85;31.68;;;;;;;1.00;99.50;99821.44;1727694;81;27596;-81
2022/12/10 06:48:35;;;;;;;70.90;31.30;;;;;;;0.98;99.43;99828.67;1729845;82;26101;-82
2022/12/10 06:51:03;;;;;;;74.25;34.03;;;;;;;0.99;99.37;99828.16;1723707;81;25784;-81
2022/12/10 06:53:31;;;;;;;69.70;32.08;;;;;;;0.98;99.42;99826.03;1709982;82;25906;-82
2022/12/10 06:56:00;;;;;;;72.03;32.13;;;;;;;1.00;99.35;99828.03;1724552;82;26043;-82
2022/12/10 06:58:28;;;;;;;;;;;;;;;0.98;99.26;99829.14;1733730;81;28892;-82
2022/12/10 07:01:08;;;;;;;64.87;28.85;;;;;;;0.98;99.31;99820.75;1738307;81;26521;-82
2022/12/10 07:03:35;;;;;;;67.80;29.37;;;;;;;0.98;99.46;99825.19;1686184;82;25957;-82
2022/12/10 07:06:03;;;;;;;70.10;30.72;;;;;;;1.00;99.46;99823.23;1716171;82;25815;-82
2022/12/10 07:08:30;;;;;;;78.05;32.45;;;;;;;0.99;99.43;99825.03;1723148;82;25903;-82
2022/12/10 07:10:57;;;;;;;77.10;34.63;;;;;;;1.02;99.51;99818.65;1719205;81;28001;-82
2022/12/10 07:13:24;;;;;;;73.50;35.52;;;;;;;1.00;99.45;99825.87;1721982;81;25898;-82
2022/12/10 07:15:51;;;;;;;76.15;34.85;;;;;;;1.02;99.49;99826.56;1724951;82;26401;-82
2022/12/10 07:18:17;;;;;;;75.10;34.30;;;;;;;1.01;99.52;99824.41;1723581;81;26549;-81
2022/12/10 07:20:43;;;;;;;75.80;35.50;;;;;;;1.04;99.54;99824.13;1696262;82;26431;-82
2022/12/10 07:23:10;;;;;;;70.60;32.42;;;;;;;1.04;99.49;99824.61;1740823;82;27494;-82
2022/12/10 07:25:36;;;;;;;79.45;35.52;;;;;;;1.04;99.53;99825.45;1719912;81;26445;-82
2022/12/10 07:28:02;;;;;;;83.07;36.13;;;;;;;1.04;99.53;99827.24;1686330;83;25292;-81
2022/12/10 07:30:29;;;;;;;70.80;32.65;;;;;;;1.02;99.51;99825.23;1712598;82;25755;-82
2022/12/10 07:32:55;;;;;;;79.40;35.28;;;;;;;1.04;99.64;99829.40;1728176;82;26088;-82
2022/12/10 07:35:21;;;;;;;78.47;35.60;;;;;;;1.06;99.68;99820.02;1699871;82;28220;-82
2022/12/10 07:37:47;;;;;;;75.08;33.85;;;;;;;1.07;99.72;99830.92;1711193;82;25910;-82
2022/12/10 07:40:14;;;;;;;70.03;30.65;;;;;;;1.07;99.57;99828.28;1713169;82;25896;-82
2022/12/10 07:42:40;;;;;;;70.70;33.45;;;;;;;1.05;99.55;99835.52;1730505;82;25835;-82
2022/12/10 07:45:08;;;;;;;69.67;31.40;;;;;;;1.03;99.59;99840.91;1700398;82;25920;-82
2022/12/10 07:47:37;;;;;;;76.07;35.52;;;;;;;1.06;99.59;99839.80;1726051;81;28502;-82
2022/12/10 07:50:05;;;;;;;73.65;32.10;;;;;;;1.06;99.68;99839.80;1717013;82;25774;-82
2022/12/10 07:52:32;;;;;;;68.45;31.65;;;;;;;1.07;99.63;99834.36;1708185;81;25835;-82
2022/12/10 07:54:58;;;;;;;68.80;30.60;;;;;;;1.07;99.61;99835.69;1697366;82;26078;-82
2022/12/10 07:57:24;;;;;;;74.50;32.15;;;;;;;1.08;99.67;99834.72;1724899;82;25761;-82
2022/12/10 07:59:51;;;;;;;59.85;29.45;;;;;;;1.08;99.68;99830.77;1708902;82;26888;-82
2022/12/10 08:02:17;;;;;;;71.33;31.90;;;;;;;1.07;99.60;99826.97;1724203;82;25836;-82
2022/12/10 08:04:43;;;;;;;68.30;30.05;;;;;;;1.04;99.59;99827.24;1699879;82;25848;-82
2022/12/10 08:07:11;;;;;;;60.90;31.17;;;;;;;1.05;99.67;99834.19;1719544;82;26486;-82
2022/12/10 08:09:37;;;;;;;69.03;29.82;;;;;;;1.00;99.52;99841.22;1696684;82;25917;-82
2022/12/10 08:12:05;;;;;;;69.82;31.55;;;;;;;0.99;99.60;99849.25;1733073;81;26983;-80
2022/12/10 08:14:32;;;;;;;57.85;28.23;;;;;;;0.97;99.66;99841.97;1720792;82;25724;-82
2022/12/10 08:16:58;;;;;;;59.50;27.15;;;;;;;0.97;99.77;99841.97;1717755;81;25751;-82
2022/12/10 08:19:24;;;;;;;65.20;29.98;;;;;;;0.97;99.80;99841.97;1703075;82;25827;-82
2022/12/10 08:21:51;;;;;;;59.48;28.65;;;;;;;0.98;99.81;99827.83;1708421;82;25826;-82
2022/12/10 08:24:17;;;;;;;61.30;29.65;;;;;;;0.99;99.84;99822.88;1721934;82;27453;-82
2022/12/10 08:26:43;;;;;;;61.68;28.27;;;;;;;1.02;99.83;99820.80;1722777;82;25779;-82
2022/12/10 08:29:09;;;;;;;64.03;27.02;;;;;;;1.04;99.84;99817.53;1724096;82;26569;-81
2022/12/10 08:31:36;;;;;;;65.65;28.98;;;;;;;1.06;99.74;99825.29;1722366;82;25805;-82
2022/12/10 08:34:02;;;;;;;60.85;27.65;;;;;;;1.05;99.70;99824.45;1733188;81;25768;-82
2022/12/10 08:36:30;;;;;;;60.63;29.55;;;;;;;1.05;99.73;99828.41;1721354;82;28271;-82
2022/12/10 08:38:56;;;;;;;60.00;26.20;;;;;;;1.08;99.81;99829.45;1717587;81;25792;-82
2022/12/10 08:41:23;;;;;;;61.13;27.32;;;;;;;1.07;99.72;99826.97;1721590;82;25869;-82
2022/12/10 08:43:52;;;;;;;59.75;27.13;;;;;;;1.09;99.82;99828.97;1712873;81;25381;-81
2022/12/10 08:46:20;;;;;;;59.35;27.07;;;;;;;1.08;99.73;99835.20;1718950;82;25856;-83
2022/12/10 08:48:47;;;;;;;62.70;27.65;;;;;;;1.08;99.81;99833.41;1716017;81;27441;-82
2022/12/10 08:51:17;;;;;;;61.73;27.85;;;;;;;1.08;99.72;99842.64;1717070;82;25315;-82
2022/12/10 08:53:44;;;;;;;61.23;27.85;;;;;;;1.09;99.75;99846.11;1721659;82;25798;-82
2022/12/10 08:56:11;;;;;;;62.48;28.95;;;;;;;1.08;99.77;99849.23;1710745;82;27027;-82
2022/12/10 08:58:38;;;;;;;63.50;28.98;;;;;;;1.10;99.78;99843.80;1717355;82;25784;-82
2022/12/10 09:01:13;;;;;;;62.55;28.17;;;;;;;1.11;99.92;99851.56;1724815;81;27516;-82
2022/12/10 09:03:39;;;;;;;59.42;27.73;;;;;;;1.14;99.93;99849.13;1729899;82;25937;-82
2022/12/10 09:06:10;;;;;;;62.17;28.77;;;;;;;1.15;99.90;99839.77;1725191;82;25341;-82
2022/12/10 09:08:37;;;;;;;;;;;;;;;1.15;99.79;99849.00;1723998;82;26386;-80
2022/12/10 09:11:20;;;;;;;59.05;26.87;;;;;;;1.16;99.86;99849.33;1713744;81;26389;-86
2022/12/10 09:13:46;;;;;;;60.30;26.90;;;;;;;1.15;99.92;99841.56;1724352;81;27456;-83
2022/12/10 09:16:13;;;;;;;62.62;28.57;;;;;;;1.16;99.89;99848.48;1714482;82;25845;-84
2022/12/10 09:18:40;;;;;;;63.02;27.22;;;;;;;1.17;99.89;99846.20;1711821;82;25589;-86
2022/12/10 09:21:09;;;;;;;62.27;27.15;;;;;;;1.17;99.84;99847.53;1719706;81;25893;-88
2022/12/10 09:23:36;;;;;;;63.85;29.18;;;;;;;1.16;99.85;99848.01;1731855;81;26005;-87
2022/12/10 09:26:08;;;;;;;52.80;25.77;;;;;;;1.15;99.82;99851.64;1710776;81;27474;-85
2022/12/10 09:28:36;;;;;;;60.73;25.75;;;;;;;1.16;99.85;99855.08;1729689;82;25930;-85
2022/12/10 09:31:05;;;;;;;58.58;25.17;;;;;;;1.16;99.89;99851.13;1714209;81;25312;-85
2022/12/10 09:33:33;;;;;;;59.13;26.75;;;;;;;1.18;99.91;99849.17;1708341;81;26327;-83
2022/12/10 09:35:59;;;;;;;58.45;27.02;;;;;;;1.17;99.84;99842.25;1700048;82;25375;-83
2022/12/10 09:38:26;;;;;;;61.48;27.48;;;;;;;1.18;99.91;99839.45;1718705;82;27509;-83
2022/12/10 09:41:00;;;;;;;63.10;27.35;;;;;;;1.20;99.91;99841.94;1717635;82;25769;-83
2022/12/10 09:43:53;;;;;;;65.80;29.10;;;;;;;1.19;99.91;99838.98;1728184;82;25868;-83
2022/12/10 09:46:54;;;;;;;64.37;28.17;;;;;;;1.20;99.96;99839.30;1677014;84;25911;-83
2022/12/10 09:49:44;;;;;;;;;;;;;;;1.21;99.98;99839.66;1667547;85;25834;-82
2022/12/10 09:52:15;;;;;;;60.05;25.82;;;;;;;1.24;100.00;99845.98;1714830;82;27480;-83
2022/12/10 09:55:10;;;;;;;67.22;27.65;;;;;;;1.25;100.00;99841.87;1740661;82;25908;-84
2022/12/10 09:57:45;;;;;;;58.15;24.80;;;;;;;1.28;100.00;99840.75;1725040;81;25790;-83
2022/12/10 10:00:37;;;;;;;61.92;26.33;;;;;;;1.28;100.00;99842.06;1723743;82;26538;-83
2022/12/10 10:03:06;;;;;;;59.48;25.92;;;;;;;1.26;99.94;99844.83;1710978;82;25945;-84
2022/12/10 10:05:41;;;;;;;60.23;27.60;;;;;;;1.25;99.95;99848.46;1729176;82;28839;-83
2022/12/10 10:08:24;;;;;;;60.50;25.68;;;;;;;1.27;100.00;99857.54;1699153;82;25916;-83
2022/12/10 10:10:51;;;;;;;58.25;26.93;;;;;;;1.29;100.00;99855.59;1713508;82;25862;-83
2022/12/10 10:13:32;;;;;;;59.75;26.07;;;;;;;1.29;100.00;99856.42;1719097;82;25914;-82
2022/12/10 10:16:27;;;;;;;63.87;26.48;;;;;;;1.31;100.00;99859.75;1710079;82;25833;-82
2022/12/10 10:19:04;;;;;;;62.08;26.17;;;;;;;1.31;100.00;99855.78;1716821;82;27475;-82
2022/12/10 10:21:46;;;;;;;57.55;26.45;;;;;;;1.32;100.00;99857.47;1710906;82;26329;-81
2022/12/10 10:24:19;;;;;;;50.00;23.63;;;;;;;1.32;100.00;99849.55;1724557;82;25839;-82
2022/12/10 10:26:46;;;;;;;53.92;24.02;;;;;;;1.32;100.00;99849.55;1725989;81;25857;-83
2022/12/10 10:29:17;;;;;;;52.50;23.95;;;;;;;1.32;99.94;99853.98;1708228;81;25900;-82
2022/12/10 10:31:44;;;;;;;53.15;22.02;;;;;;;1.31;100.00;99845.72;1720586;82;27520;-81
2022/12/10 10:34:21;;;;;;;47.73;22.25;;;;;;;1.32;100.00;99841.63;1730872;82;25901;-82
2022/12/10 10:36:58;;;;;;;48.85;20.95;;;;;;;1.32;99.89;99840.80;1682004;83;25864;-83
2022/12/10 10:39:31;;;;;;;51.10;23.25;;;;;;;1.31;99.95;99841.28;1697320;83;25808;-82
2022/12/10 10:41:59;;;;;;;56.20;25.60;;;;;;;1.29;99.93;99833.16;1719274;82;25376;-84
2022/12/10 10:44:31;;;;;;;49.88;22.85;;;;;;;1.28;100.00;99824.92;1700542;82;27451;-83
2022/12/10 10:46:58;;;;;;;47.60;20.92;;;;;;;1.29;100.00;99814.22;1696201;83;25325;-82
2022/12/10 10:49:31;;;;;;;54.53;23.67;;;;;;;1.31;100.00;99819.33;1714748;81;26023;-83
2022/12/10 10:52:14;;;;;;;51.28;23.25;;;;;;;1.30;100.00;99811.93;1727666;82;25795;-82
2022/12/10 10:54:43;;;;;;;51.33;23.02;;;;;;;1.31;100.00;99806.14;1722657;82;26478;-82
2022/12/10 10:57:36;;;;;;;47.30;22.82;;;;;;;1.31;100.00;99810.10;1721867;81;27455;-83
2022/12/10 11:00:26;;;;;;;55.90;23.65;;;;;;;1.29;99.98;99804.14;1710383;81;26160;-82
2022/12/10 11:02:50;;;;;;;49.67;21.93;;;;;;;1.28;99.92;99810.41;1716702;82;26498;-83
2022/12/10 11:05:29;;;;;;;57.70;24.70;;;;;;;1.27;99.97;99809.58;1712459;82;25888;-83
2022/12/10 11:08:04;;;;;;;54.58;24.57;;;;;;;1.29;100.00;99814.22;1722996;82;25931;-83
2022/12/10 11:10:31;;;;;;;54.70;23.30;;;;;;;1.33;100.00;99806.83;1725298;82;27451;-82
2022/12/10 11:13:04;;;;;;;53.35;22.90;;;;;;;1.33;99.96;99809.46;1723673;82;25927;-83
2022/12/10 11:15:40;;;;;;;57.75;23.35;;;;;;;1.32;99.89;99803.37;1723150;82;25772;-82
2022/12/10 11:18:34;;;;;;;59.73;23.73;;;;;;;1.32;99.89;99792.83;1728144;81;26654;-83
2022/12/10 11:21:16;;;;;;;54.15;23.32;;;;;;;1.29;99.66;99794.42;1723063;82;26582;-84
2022/12/10 11:23:46;;;;;;;56.55;24.50;;;;;;;1.26;99.64;99793.39;1727865;82;28241;-81
2022/12/10 11:26:34;;;;;;;;;;;;;;;1.26;99.58;99791.27;1727960;82;26340;-82
2022/12/10 11:29:36;;;;;;;48.95;20.85;;;;;;;1.26;99.57;99788.11;1713826;82;25780;-82
2022/12/10 11:32:30;;;;;;;59.03;24.57;;;;;;;1.23;99.53;99792.38;1734498;80;26121;-82
2022/12/10 11:35:23;;;;;;;64.67;25.62;;;;;;;1.21;99.59;99786.42;1723674;82;25958;-87
2022/12/10 11:38:24;;;;;;;63.70;25.95;;;;;;;1.22;99.68;99780.16;1716168;82;27462;-86
2022/12/10 11:40:58;;;;;;;57.90;21.93;;;;;;;1.25;99.78;99788.27;1718468;82;25836;-87
2022/12/10 11:43:39;;;;;;;62.78;23.98;;;;;;;1.29;99.75;99789.63;1718546;81;25324;-87
2022/12/10 11:46:35;;;;;;;61.95;24.15;;;;;;;1.29;99.48;99794.91;1719771;81;26616;-86
2022/12/10 11:49:34;;;;;;;60.80;24.87;;;;;;;1.29;99.52;99793.11;1723022;81;25961;-85
2022/12/10 11:52:30;;;;;;;65.60;24.52;;;;;;;1.30;99.32;99793.95;1712202;82;28308;-85
2022/12/10 11:55:38;;;;;;;55.60;23.98;;;;;;;1.31;99.37;99794.27;1682184;84;26020;-84